createdAt,value
2024-05-09T00:00:39.867Z,232.00
2024-05-09T00:03:09.141Z,269.02
2024-05-09T00:05:37.475Z,249.80
2024-05-09T00:08:04.746Z,206.57
2024-05-09T00:10:36.541Z,232.63
2024-05-09T00:13:06.166Z,195.00
2024-05-09T00:15:33.962Z,218.48
2024-05-09T00:18:01.619Z,216.45
2024-05-09T00:20:36.803Z,222.52
2024-05-09T00:23:07.669Z,197.90
2024-05-09T00:25:35.437Z,206.02
2024-05-09T00:28:02.536Z,185.25
2024-05-09T00:30:34.469Z,199.38
2024-05-09T00:33:05.171Z,196.70
2024-05-09T00:35:33.019Z,199.15
2024-05-09T00:38:00.113Z,150.70
2024-05-09T00:40:37.606Z,217.02
2024-05-09T00:43:07.405Z,167.52
2024-05-09T00:45:34.634Z,168.38
2024-05-09T00:48:02.609Z,192.43
2024-05-09T00:50:35.833Z,162.80
2024-05-09T00:53:05.948Z,169.95
2024-05-09T00:55:33.760Z,155.02
2024-05-09T00:58:00.786Z,167.63
2024-05-09T01:00:35.670Z,171.52
2024-05-09T01:03:06.694Z,157.68
2024-05-09T01:05:34.702Z,162.00
2024-05-09T01:08:01.847Z,161.40
2024-05-09T01:10:34.290Z,158.18
2024-05-09T01:13:03.116Z,197.48
2024-05-09T01:15:29.967Z,142.60
2024-05-09T01:17:57.556Z,191.77
2024-05-09T01:20:36.403Z,166.98
2024-05-09T01:23:08.905Z,155.40
2024-05-09T01:25:36.023Z,161.20
2024-05-09T01:28:02.887Z,165.27
2024-05-09T01:30:34.763Z,163.60
2024-05-09T01:33:04.475Z,158.23
2024-05-09T01:35:31.942Z,167.77
2024-05-09T01:37:58.880Z,159.75
2024-05-09T01:40:36.065Z,182.65
2024-05-09T01:43:06.125Z,154.73
2024-05-09T01:45:33.093Z,165.23
2024-05-09T01:48:00.265Z,156.18
2024-05-09T01:52:56.819Z,202.10
2024-05-09T01:55:23.685Z,166.55
2024-05-09T01:57:51.592Z,161.88
2024-05-09T02:00:26.339Z,164.18
2024-05-09T02:03:01.972Z,145.50
2024-05-09T02:05:29.138Z,182.77
2024-05-09T02:07:55.975Z,145.60
2024-05-09T02:10:26.604Z,155.13
2024-05-09T02:12:59.000Z,148.70
2024-05-09T02:15:25.789Z,164.57
2024-05-09T02:17:52.641Z,146.93
2024-05-09T02:20:29.963Z,146.05
2024-05-09T02:23:03.641Z,134.80
2024-05-09T02:25:30.665Z,139.50
2024-05-09T02:27:57.472Z,152.88
2024-05-09T02:30:31.093Z,164.27
2024-05-09T02:33:06.137Z,148.40
2024-05-09T02:35:33.206Z,170.57
2024-05-09T02:38:00.129Z,172.60
2024-05-09T02:40:35.582Z,164.13
2024-05-09T02:43:05.190Z,151.93
2024-05-09T02:45:32.074Z,151.38
2024-05-09T02:47:59.206Z,159.95
2024-05-09T02:50:34.143Z,169.95
2024-05-09T02:53:05.529Z,156.05
2024-05-09T02:55:32.562Z,153.05
2024-05-09T02:57:59.556Z,154.15
2024-05-09T03:00:34.703Z,163.70
2024-05-09T03:03:08.073Z,119.97
2024-05-09T03:05:35.733Z,139.85
2024-05-09T03:08:02.806Z,154.55
2024-05-09T03:10:35.470Z,147.85
2024-05-09T03:13:07.871Z,154.00
2024-05-09T03:15:34.658Z,136.65
2024-05-09T03:18:01.824Z,133.10
2024-05-09T03:20:34.045Z,130.63
2024-05-09T03:23:03.144Z,126.82
2024-05-09T03:25:30.241Z,140.88
2024-05-09T03:27:57.079Z,143.60
2024-05-09T03:30:35.875Z,124.93
2024-05-09T03:33:12.509Z,149.02
2024-05-09T03:35:40.338Z,142.93
2024-05-09T03:38:07.105Z,142.45
2024-05-09T03:40:33.802Z,134.75
2024-05-09T03:43:00.619Z,145.27
2024-05-09T03:45:27.399Z,141.68
2024-05-09T03:47:54.332Z,131.05
2024-05-09T03:50:29.535Z,150.57
2024-05-09T03:53:00.809Z,140.35
2024-05-09T03:55:27.955Z,144.63
2024-05-09T03:57:54.637Z,136.88
2024-05-09T04:00:30.682Z,137.23
2024-05-09T04:03:04.472Z,145.05
2024-05-09T04:05:32.767Z,135.95
2024-05-09T04:07:59.749Z,156.75
2024-05-09T04:10:33.620Z,140.90
2024-05-09T04:13:01.856Z,141.05
2024-05-09T04:15:28.747Z,155.63
2024-05-09T04:17:56.639Z,174.88
2024-05-09T04:20:34.273Z,224.10
2024-05-09T04:23:06.715Z,191.40
2024-05-09T04:25:33.916Z,165.98
2024-05-09T04:28:00.699Z,148.82
2024-05-09T04:30:36.379Z,164.38
2024-05-09T04:33:07.728Z,172.50
2024-05-09T04:35:36.270Z,185.35
2024-05-09T04:38:04.296Z,191.35
2024-05-09T04:40:34.616Z,221.93
2024-05-09T04:43:03.800Z,225.85
2024-05-09T04:45:30.624Z,227.85
2024-05-09T04:47:57.864Z,227.63
2024-05-09T04:50:33.367Z,227.05
2024-05-09T04:53:04.423Z,177.23
2024-05-09T04:55:33.139Z,174.35
2024-05-09T04:58:00.001Z,196.73
2024-05-09T05:00:34.698Z,182.23
2024-05-09T05:03:10.254Z,146.43
2024-05-09T05:05:42.420Z,185.50
2024-05-09T05:08:17.006Z,129.07
2024-05-09T05:10:45.140Z,131.82
2024-05-09T05:13:24.031Z,156.70
2024-05-09T05:15:58.367Z,146.57
2024-05-09T05:18:26.423Z,178.70
2024-05-09T05:20:54.883Z,278.50
2024-05-09T05:23:22.260Z,254.85
2024-05-09T05:25:49.589Z,341.30
2024-05-09T05:28:16.774Z,384.73
2024-05-09T05:30:43.529Z,385.13
2024-05-09T05:33:10.935Z,335.63
2024-05-09T05:35:38.409Z,407.15
2024-05-09T05:38:06.637Z,388.55
2024-05-09T05:40:37.022Z,390.65
2024-05-09T05:43:12.090Z,359.35
2024-05-09T05:45:39.185Z,391.30
2024-05-09T05:48:07.266Z,461.05
2024-05-09T05:50:37.253Z,421.38
2024-05-09T05:53:06.359Z,486.17
2024-05-09T05:55:33.320Z,648.22
2024-05-09T05:58:01.135Z,698.65
2024-05-09T06:00:34.783Z,822.80
2024-05-09T06:03:05.663Z,305.83
2024-05-09T06:05:32.932Z,682.60
2024-05-09T06:08:00.086Z,506.77
2024-05-09T06:10:36.978Z,532.22
2024-05-09T06:13:06.639Z,633.67
2024-05-09T06:15:33.407Z,500.15
2024-05-09T06:18:00.671Z,499.27
2024-05-09T06:20:35.064Z,506.30
2024-05-09T06:23:04.498Z,378.77
2024-05-09T06:25:31.720Z,457.13
2024-05-09T06:27:59.155Z,385.45
2024-05-09T06:30:34.472Z,397.10
2024-05-09T06:33:06.066Z,387.88
2024-05-09T06:35:33.650Z,383.67
2024-05-09T06:38:01.226Z,478.90
2024-05-09T06:40:36.473Z,400.27
2024-05-09T06:43:10.534Z,453.40
2024-05-09T06:45:39.649Z,501.70
2024-05-09T06:48:07.319Z,397.15
2024-05-09T06:50:37.861Z,629.00
2024-05-09T06:53:06.216Z,560.42
2024-05-09T06:55:33.053Z,557.38
2024-05-09T06:57:59.938Z,329.02
2024-05-09T07:00:34.814Z,378.27
2024-05-09T07:03:13.808Z,259.42
2024-05-09T07:05:43.077Z,209.27
2024-05-09T07:08:10.278Z,593.30
2024-05-09T07:10:37.583Z,234.55
2024-05-09T07:13:10.983Z,302.52
2024-05-09T07:15:38.304Z,365.23
2024-05-09T07:18:20.355Z,361.25
2024-05-09T07:20:48.559Z,312.58
2024-05-09T07:23:16.408Z,367.45
2024-05-09T07:25:43.439Z,576.15
2024-05-09T07:28:11.274Z,532.13
2024-05-09T07:30:38.063Z,421.90
2024-05-09T07:33:05.195Z,483.42
2024-05-09T07:35:32.366Z,406.35
2024-05-09T07:37:59.357Z,669.45
2024-05-09T07:40:33.186Z,372.13
2024-05-09T07:43:03.750Z,448.17
2024-05-09T07:45:47.737Z,1933.78
2024-05-09T07:53:39.206Z,367.33
2024-05-09T07:56:10.116Z,448.88
2024-05-09T07:58:38.283Z,766.20
2024-05-09T08:01:07.416Z,912.63
2024-05-09T08:03:34.429Z,858.58
2024-05-09T08:06:01.566Z,560.67
2024-05-09T08:08:28.479Z,1999.90
2024-05-09T08:10:55.892Z,533.65
2024-05-09T08:13:22.945Z,752.85
2024-05-09T08:15:50.067Z,493.30
2024-05-09T08:18:17.835Z,469.63
2024-05-09T08:20:48.267Z,738.38
2024-05-09T08:23:14.998Z,598.80
2024-05-09T08:25:41.723Z,1999.90
2024-05-09T08:28:08.663Z,1999.90
2024-05-09T08:30:37.601Z,936.15
2024-05-09T08:33:06.272Z,1233.95
2024-05-09T08:35:34.214Z,1909.38
2024-05-09T08:38:04.757Z,1920.40
2024-05-09T08:40:36.740Z,1179.97
2024-05-09T08:43:12.775Z,1999.90
2024-05-09T08:45:44.088Z,1999.90
2024-05-09T08:48:12.681Z,1999.90
2024-05-09T08:50:43.219Z,1063.82
2024-05-09T08:53:10.251Z,1971.30
2024-05-09T08:55:40.644Z,1999.90
2024-05-09T08:58:13.985Z,1054.95
2024-05-09T09:00:41.962Z,1999.90
2024-05-09T09:03:09.477Z,1999.90
2024-05-09T09:05:38.114Z,1999.90
2024-05-09T09:08:07.012Z,1999.90
2024-05-09T09:10:34.076Z,1999.90
2024-05-09T09:13:01.621Z,1999.90
2024-05-09T09:15:28.383Z,1623.63
2024-05-09T09:17:59.751Z,1999.90
2024-05-09T09:20:34.140Z,1999.90
2024-05-09T09:23:04.349Z,1995.78
2024-05-09T09:25:31.656Z,1999.90
2024-05-09T09:27:58.868Z,1999.90
2024-05-09T09:30:36.297Z,1999.90
2024-05-09T09:33:06.113Z,1165.97
2024-05-09T09:35:33.940Z,1999.90
2024-05-09T09:38:05.810Z,924.22
2024-05-09T09:40:40.388Z,1792.90
2024-05-09T09:43:13.951Z,1999.90
2024-05-09T09:45:43.219Z,1659.18
2024-05-09T09:48:10.630Z,1999.90
2024-05-09T09:50:37.579Z,1999.90
2024-05-09T09:53:07.097Z,1999.90
2024-05-09T09:55:34.828Z,1154.78
2024-05-09T09:58:04.000Z,1999.90
2024-05-09T10:00:33.663Z,1999.90
2024-05-09T10:03:01.568Z,1999.90
2024-05-09T10:05:29.554Z,1999.90
2024-05-09T10:07:57.448Z,732.00
2024-05-09T10:10:31.582Z,1999.90
2024-05-09T10:13:00.230Z,1999.90
2024-05-09T10:15:27.452Z,1999.90
2024-05-09T10:17:54.862Z,1175.30
2024-05-09T10:20:28.024Z,1737.85
2024-05-09T10:22:59.135Z,1999.90
2024-05-09T10:25:25.893Z,1999.90
2024-05-09T10:27:55.987Z,1999.90
2024-05-09T10:30:29.671Z,1999.90
2024-05-09T10:33:02.537Z,1999.90
2024-05-09T10:35:31.118Z,1999.90
2024-05-09T10:38:03.300Z,1999.90
2024-05-09T10:40:31.748Z,1999.90
2024-05-09T10:43:02.537Z,1979.18
2024-05-09T10:45:32.054Z,1999.90
2024-05-09T10:48:00.231Z,1999.90
2024-05-09T10:50:31.813Z,1999.90
2024-05-09T10:53:02.335Z,1999.90
2024-05-09T10:55:29.201Z,1999.90
2024-05-09T10:57:55.956Z,1999.90
2024-05-09T11:00:27.842Z,1999.90
2024-05-09T11:03:01.007Z,1999.90
2024-05-09T11:05:28.140Z,1999.90
2024-05-09T11:07:55.040Z,1999.90
2024-05-09T11:10:27.788Z,1999.90
2024-05-09T11:13:00.786Z,1662.85
2024-05-09T11:15:37.705Z,678.22
2024-05-09T11:18:04.678Z,1999.90
2024-05-09T11:20:35.859Z,1999.90
2024-05-09T11:23:06.156Z,1530.05
2024-05-09T11:25:33.321Z,1086.55
2024-05-09T11:28:00.846Z,1365.32
2024-05-09T11:30:31.998Z,1999.90
2024-05-09T11:32:59.741Z,1999.90
2024-05-09T11:35:27.052Z,1999.90
2024-05-09T11:37:53.958Z,1999.90
2024-05-09T11:40:25.446Z,1999.90
2024-05-09T11:42:55.534Z,1999.90
2024-05-09T11:45:22.625Z,1999.90
2024-05-09T11:47:49.689Z,426.65
2024-05-09T11:50:26.707Z,1251.22
2024-05-09T11:52:57.331Z,1999.90
2024-05-09T11:55:27.765Z,1752.38
2024-05-09T11:57:55.924Z,1670.38
2024-05-09T12:00:33.661Z,1527.88
2024-05-09T12:03:05.209Z,1999.90
2024-05-09T12:05:32.860Z,1999.90
2024-05-09T12:08:00.553Z,1999.90
2024-05-09T12:10:33.139Z,1999.90
2024-05-09T12:13:03.727Z,1367.80
2024-05-09T12:15:32.017Z,1999.90
2024-05-09T12:18:02.807Z,1999.90
2024-05-09T12:20:36.847Z,1999.90
2024-05-09T12:23:06.229Z,1999.90
2024-05-09T12:25:33.149Z,1999.90
2024-05-09T12:28:00.332Z,1413.65
2024-05-09T12:30:35.534Z,1568.32
2024-05-09T12:33:07.422Z,1999.90
2024-05-09T12:35:34.312Z,1999.90
2024-05-09T12:38:01.141Z,1999.90
2024-05-09T12:40:35.533Z,1999.90
2024-05-09T12:43:06.742Z,1999.90
2024-05-09T12:45:33.768Z,1936.78
2024-05-09T12:48:00.908Z,1999.90
2024-05-09T12:50:32.938Z,1999.90
2024-05-09T12:53:01.835Z,1999.90
2024-05-09T12:55:33.787Z,1999.90
2024-05-09T12:58:07.958Z,1999.90
2024-05-09T13:00:34.990Z,1999.90
2024-05-09T13:03:02.064Z,1689.18
2024-05-09T13:05:29.685Z,819.30
2024-05-09T13:07:57.248Z,1863.78
2024-05-09T13:10:31.265Z,1999.90
2024-05-09T13:15:27.306Z,1707.78
2024-05-09T13:17:55.817Z,1999.90
2024-05-09T13:20:31.231Z,1999.90
2024-05-09T13:23:01.372Z,1999.90
2024-05-09T13:25:28.156Z,1999.90
2024-05-09T13:27:55.375Z,1576.05
2024-05-09T13:30:29.683Z,1999.90
2024-05-09T13:33:05.885Z,1999.90
2024-05-09T13:35:35.211Z,1999.90
2024-05-09T13:38:02.856Z,1999.90
2024-05-09T13:40:34.151Z,1999.90
2024-05-09T13:43:03.509Z,1999.90
2024-05-09T13:45:30.648Z,1999.90
2024-05-09T13:47:57.690Z,1999.90
2024-05-09T13:50:33.125Z,1999.90
2024-05-09T13:53:02.883Z,1999.90
2024-05-09T13:55:30.236Z,1999.90
2024-05-09T13:57:57.125Z,1999.90
2024-05-09T14:03:00.201Z,1999.90
2024-05-09T14:05:27.117Z,1999.90
2024-05-09T14:07:53.980Z,1999.90
2024-05-09T14:10:26.206Z,1999.90
2024-05-09T14:12:57.623Z,1999.90
2024-05-09T14:15:24.419Z,1999.90
2024-05-09T14:17:51.461Z,1999.90
2024-05-09T14:20:28.231Z,1999.90
2024-05-09T14:22:58.836Z,1999.90
2024-05-09T14:25:28.357Z,1494.32
2024-05-09T14:27:56.118Z,1686.70
2024-05-09T14:30:30.663Z,1999.90
2024-05-09T14:33:04.007Z,1999.90
2024-05-09T14:35:31.183Z,1999.90
2024-05-09T14:37:58.628Z,1999.90
2024-05-09T14:40:36.856Z,1999.90
2024-05-09T14:43:08.918Z,1999.90
2024-05-09T14:45:35.919Z,1999.90
2024-05-09T14:48:03.365Z,1999.90
2024-05-09T14:50:36.209Z,1999.90
2024-05-09T14:53:06.840Z,1999.90
2024-05-09T14:55:39.281Z,1999.90
2024-05-09T14:58:07.499Z,1999.90
2024-05-09T15:00:36.598Z,1585.88
2024-05-09T15:03:05.178Z,1999.90
2024-05-09T15:05:32.200Z,1999.90
2024-05-09T15:07:59.668Z,1999.90
2024-05-09T15:10:34.091Z,1666.75
2024-05-09T15:13:03.471Z,1999.90
2024-05-09T15:15:31.162Z,1999.90
2024-05-09T15:17:58.982Z,1999.90
2024-05-09T15:20:33.137Z,1999.90
2024-05-09T15:23:03.188Z,1999.90
2024-05-09T15:25:30.254Z,1999.90
2024-05-09T15:27:57.442Z,1999.90
2024-05-09T15:30:30.452Z,1999.90
2024-05-09T15:33:00.112Z,1999.90
2024-05-09T15:35:27.204Z,1999.90
2024-05-09T15:37:54.037Z,1999.90
2024-05-09T15:40:30.618Z,1999.90
2024-05-09T15:43:04.685Z,1999.90
2024-05-09T15:45:32.091Z,1999.90
2024-05-09T15:47:59.726Z,1999.90
2024-05-09T15:50:36.383Z,1999.90
2024-05-09T15:53:07.702Z,1999.90
2024-05-09T15:55:35.221Z,1999.90
2024-05-09T15:58:02.684Z,1999.90
2024-05-09T16:00:37.425Z,1999.90
2024-05-09T16:03:08.153Z,1999.90
2024-05-09T16:05:35.242Z,1999.90
2024-05-09T16:08:02.377Z,1999.90
2024-05-09T16:10:32.788Z,1999.90
2024-05-09T16:13:01.755Z,1999.90
2024-05-09T16:15:28.937Z,1999.90
2024-05-09T16:17:56.197Z,1999.90
2024-05-09T16:22:53.086Z,1999.90
2024-05-09T16:25:20.065Z,1999.90
2024-05-09T16:27:47.053Z,1999.90
2024-05-09T16:30:21.295Z,1999.90
2024-05-09T16:32:55.127Z,1999.90
2024-05-09T16:35:21.993Z,1999.90
2024-05-09T16:37:49.011Z,1999.90
2024-05-09T16:40:24.940Z,1999.90
2024-05-09T16:43:00.143Z,1999.90
2024-05-09T16:45:27.434Z,1999.90
2024-05-09T16:47:54.764Z,1999.90
2024-05-09T16:50:28.786Z,1999.90
2024-05-09T16:52:58.902Z,1999.90
2024-05-09T16:55:25.871Z,1999.90
2024-05-09T16:57:52.816Z,1999.90
2024-05-09T17:00:30.929Z,1999.90
2024-05-09T17:03:06.411Z,1999.90
2024-05-09T17:05:33.885Z,1999.90
2024-05-09T17:08:01.286Z,1999.90
2024-05-09T17:10:32.895Z,1999.90
2024-05-09T17:13:02.472Z,1999.90
2024-05-09T17:15:29.832Z,1999.90
2024-05-09T17:17:56.808Z,1999.90
2024-05-09T17:20:31.663Z,1999.90
2024-05-09T17:23:02.492Z,1999.90
2024-05-09T17:25:29.560Z,1999.90
2024-05-09T17:27:57.190Z,1999.90
2024-05-09T17:30:29.369Z,1633.45
2024-05-09T17:33:02.738Z,1999.90
2024-05-09T17:35:29.746Z,1999.90
2024-05-09T17:37:56.814Z,1106.15
2024-05-09T17:40:31.377Z,1999.90
2024-05-09T17:43:02.670Z,1847.22
2024-05-09T17:45:29.674Z,1406.65
2024-05-09T17:47:56.781Z,1999.90
2024-05-09T17:50:30.398Z,1732.80
2024-05-09T17:53:01.635Z,1992.18
2024-05-09T17:55:28.754Z,1999.90
2024-05-09T17:57:55.982Z,1380.30
2024-05-09T18:00:33.175Z,884.50
2024-05-09T18:03:06.228Z,593.10
2024-05-09T18:05:35.024Z,552.75
2024-05-09T18:08:02.217Z,520.33
2024-05-09T18:10:35.627Z,423.92
2024-05-09T18:13:10.277Z,405.77
2024-05-09T18:15:37.590Z,330.77
2024-05-09T18:18:05.772Z,427.48
2024-05-09T18:20:41.577Z,370.25
2024-05-09T18:23:13.248Z,400.05
2024-05-09T18:25:41.797Z,384.02
2024-05-09T18:28:08.836Z,340.95
2024-05-09T18:30:37.134Z,314.20
2024-05-09T18:33:06.462Z,300.45
2024-05-09T18:35:34.870Z,256.75
2024-05-09T18:38:01.788Z,255.57
2024-05-09T18:40:34.148Z,258.73
2024-05-09T18:43:05.853Z,267.73
2024-05-09T18:45:34.228Z,297.50
2024-05-09T18:48:01.468Z,298.23
2024-05-09T18:50:35.110Z,304.63
2024-05-09T18:53:06.183Z,303.67
2024-05-09T18:55:33.648Z,317.85
2024-05-09T18:58:03.918Z,343.33
2024-05-09T19:00:35.554Z,343.60
2024-05-09T19:03:10.515Z,322.25
2024-05-09T19:05:41.793Z,300.73
2024-05-09T19:08:10.175Z,282.02
2024-05-09T19:10:38.457Z,303.25
2024-05-09T19:13:10.199Z,328.33
2024-05-09T19:15:40.188Z,322.42
2024-05-09T19:18:11.792Z,305.90
2024-05-09T19:20:39.310Z,378.10
2024-05-09T19:23:07.297Z,397.35
2024-05-09T19:25:35.841Z,410.00
2024-05-09T19:28:03.710Z,392.40
2024-05-09T19:30:38.444Z,381.77
2024-05-09T19:33:09.207Z,345.95
2024-05-09T19:35:36.829Z,394.00
2024-05-09T19:38:03.952Z,373.05
2024-05-09T19:40:33.085Z,355.48
2024-05-09T19:43:02.857Z,350.42
2024-05-09T19:45:30.576Z,406.73
2024-05-09T19:47:57.822Z,399.80
2024-05-09T19:50:32.526Z,414.92
2024-05-09T19:53:07.571Z,395.35
2024-05-09T19:55:35.148Z,419.60
2024-05-09T19:58:04.868Z,435.23
2024-05-09T20:00:38.625Z,413.27
2024-05-09T20:03:09.770Z,410.08
2024-05-09T20:05:40.359Z,397.90
2024-05-09T20:08:07.473Z,346.30
2024-05-09T20:10:36.207Z,350.23
2024-05-09T20:13:05.197Z,371.92
2024-05-09T20:15:34.233Z,381.58
2024-05-09T20:18:01.784Z,368.00
2024-05-09T20:20:36.381Z,394.60
2024-05-09T20:23:07.138Z,440.60
2024-05-09T20:25:33.802Z,410.00
2024-05-09T20:28:00.856Z,391.02
2024-05-09T20:30:32.198Z,423.15
2024-05-09T20:33:02.456Z,407.58
2024-05-09T20:35:31.778Z,382.23
2024-05-09T20:38:00.958Z,366.90
2024-05-09T20:40:32.886Z,383.23
2024-05-09T20:43:03.435Z,385.65
2024-05-09T20:45:30.180Z,438.48
2024-05-09T20:47:57.558Z,421.85
2024-05-09T20:50:35.455Z,439.30
2024-05-09T20:53:08.326Z,421.73
2024-05-09T20:55:35.191Z,426.98
2024-05-09T20:58:01.967Z,377.50
2024-05-09T21:00:35.522Z,347.65
2024-05-09T21:03:07.591Z,338.23
2024-05-09T21:05:35.152Z,395.02
2024-05-09T21:08:02.842Z,346.48
2024-05-09T21:10:32.556Z,347.42
2024-05-09T21:13:04.376Z,430.27
2024-05-09T21:15:32.152Z,416.65
2024-05-09T21:17:59.214Z,410.55
2024-05-09T21:20:31.325Z,430.95
2024-05-09T21:22:59.542Z,415.13
2024-05-09T21:25:26.482Z,429.02
2024-05-09T21:27:54.080Z,386.65
2024-05-09T21:32:51.033Z,453.33
2024-05-09T21:35:18.246Z,375.48
2024-05-09T21:37:45.049Z,348.08
2024-05-09T21:40:16.987Z,268.35
2024-05-09T21:42:50.841Z,307.55
2024-05-09T21:45:17.845Z,344.20
2024-05-09T21:47:44.669Z,368.95
2024-05-09T21:50:22.063Z,378.13
2024-05-09T21:52:50.208Z,343.98
2024-05-09T21:55:17.028Z,332.98
2024-05-09T21:57:43.880Z,290.85
2024-05-09T22:00:20.369Z,362.38
2024-05-09T22:02:52.148Z,301.58
2024-05-09T22:05:19.067Z,417.60
2024-05-09T22:07:45.799Z,314.45
2024-05-09T22:10:20.025Z,387.38
2024-05-09T22:12:52.927Z,377.08
2024-05-09T22:15:19.766Z,327.60
2024-05-09T22:17:46.567Z,300.48
2024-05-09T22:20:21.834Z,287.63
2024-05-09T22:22:55.493Z,317.25
2024-05-09T22:25:22.345Z,290.83
2024-05-09T22:27:49.250Z,388.00
2024-05-09T22:30:23.762Z,353.70
2024-05-09T22:32:54.572Z,386.55
2024-05-09T22:35:21.321Z,406.73
2024-05-09T22:37:48.162Z,412.52
2024-05-09T22:40:20.684Z,407.85
2024-05-09T22:42:55.257Z,397.25
2024-05-09T22:45:22.000Z,408.63
2024-05-09T22:47:48.826Z,426.73
2024-05-09T22:50:26.246Z,416.98
2024-05-09T22:52:54.128Z,415.98
2024-05-09T22:55:21.114Z,395.23
2024-05-09T22:57:48.347Z,375.85
2024-05-09T23:00:16.211Z,358.85
2024-05-09T23:02:45.739Z,385.65
2024-05-09T23:05:12.812Z,379.65
2024-05-09T23:07:40.231Z,404.35
2024-05-09T23:10:13.321Z,365.27
2024-05-09T23:12:44.138Z,417.80
2024-05-09T23:15:11.003Z,389.83
2024-05-09T23:17:37.966Z,394.17
2024-05-09T23:20:06.882Z,376.52
2024-05-09T23:22:35.721Z,371.60
2024-05-09T23:25:02.631Z,392.38
2024-05-09T23:27:29.627Z,383.08
2024-05-09T23:29:56.433Z,371.05
2024-05-09T23:32:23.331Z,382.58
2024-05-09T23:34:50.209Z,379.75
2024-05-09T23:37:17.054Z,389.23
2024-05-09T23:39:44.049Z,360.92
2024-05-09T23:42:10.926Z,389.20
2024-05-09T23:44:37.674Z,372.45
2024-05-09T23:47:04.806Z,376.02
2024-05-09T23:49:32.139Z,363.05
2024-05-09T23:51:59.094Z,372.27
2024-05-09T23:54:25.999Z,338.70
2024-05-09T23:56:52.778Z,364.60
2024-05-09T23:59:19.619Z,366.10
